sensor_id;sensor_type;location;lat;lon;timestamp;P1;durP1;ratioP1;P2;durP2;ratioP2
2055;SDS011;1033;52.560;13.374;2022-08-18T00:01:12;13.50;;;12.13;;
2055;SDS011;1033;52.560;13.374;2022-08-18T00:03:44;14.50;;;12.43;;
2055;SDS011;1033;52.560;13.374;2022-08-18T00:06:24;13.80;;;12.40;;
2055;SDS011;1033;52.560;13.374;2022-08-18T00:08:56;18.70;;;11.63;;
2055;SDS011;1033;52.560;13.374;2022-08-18T00:11:26;12.97;;;11.70;;
2055;SDS011;1033;52.560;13.374;2022-08-18T00:14:08;13.00;;;10.97;;
2055;SDS011;1033;52.560;13.374;2022-08-18T00:16:50;13.30;;;11.97;;
2055;SDS011;1033;52.560;13.374;2022-08-18T00:19:21;13.00;;;11.53;;
2055;SDS011;1033;52.560;13.374;2022-08-18T00:22:13;13.20;;;11.93;;
2055;SDS011;1033;52.560;13.374;2022-08-18T00:24:47;14.63;;;13.30;;
2055;SDS011;1033;52.560;13.374;2022-08-18T00:27:19;16.70;;;12.60;;
2055;SDS011;1033;52.560;13.374;2022-08-18T00:29:55;13.73;;;12.43;;
2055;SDS011;1033;52.560;13.374;2022-08-18T00:32:29;12.80;;;11.50;;
2055;SDS011;1033;52.560;13.374;2022-08-18T00:35:04;12.23;;;11.00;;
2055;SDS011;1033;52.560;13.374;2022-08-18T00:37:35;12.63;;;11.33;;
2055;SDS011;1033;52.560;13.374;2022-08-18T00:40:04;12.27;;;10.97;;
2055;SDS011;1033;52.560;13.374;2022-08-18T00:42:39;12.03;;;10.83;;
2055;SDS011;1033;52.560;13.374;2022-08-18T00:45:13;14.17;;;12.80;;
2055;SDS011;1033;52.560;13.374;2022-08-18T00:47:50;12.63;;;11.33;;
2055;SDS011;1033;52.560;13.374;2022-08-18T00:50:20;12.17;;;11.07;;
2055;SDS011;1033;52.560;13.374;2022-08-18T00:52:55;13.93;;;12.50;;
2055;SDS011;1033;52.560;13.374;2022-08-18T00:55:29;13.33;;;11.20;;
2055;SDS011;1033;52.560;13.374;2022-08-18T00:58:02;13.73;;;12.33;;
2055;SDS011;1033;52.560;13.374;2022-08-18T01:00:36;13.50;;;12.07;;
2055;SDS011;1033;52.560;13.374;2022-08-18T01:03:08;13.67;;;12.27;;
2055;SDS011;1033;52.560;13.374;2022-08-18T01:05:51;16.63;;;11.90;;
2055;SDS011;1033;52.560;13.374;2022-08-18T01:08:28;15.70;;;12.07;;
2055;SDS011;1033;52.560;13.374;2022-08-18T01:10:58;12.93;;;11.53;;
2055;SDS011;1033;52.560;13.374;2022-08-18T01:13:30;14.03;;;12.53;;
2055;SDS011;1033;52.560;13.374;2022-08-18T01:16:00;13.70;;;11.83;;
2055;SDS011;1033;52.560;13.374;2022-08-18T01:18:51;14.10;;;12.30;;
2055;SDS011;1033;52.560;13.374;2022-08-18T01:21:39;13.40;;;12.03;;
2055;SDS011;1033;52.560;13.374;2022-08-18T01:24:21;16.57;;;11.83;;
2055;SDS011;1033;52.560;13.374;2022-08-18T01:27:14;14.80;;;13.43;;
2055;SDS011;1033;52.560;13.374;2022-08-18T01:29:44;13.80;;;12.40;;
2055;SDS011;1033;52.560;13.374;2022-08-18T01:32:15;15.43;;;11.40;;
2055;SDS011;1033;52.560;13.374;2022-08-18T01:34:49;15.07;;;12.63;;
2055;SDS011;1033;52.560;13.374;2022-08-18T01:37:21;13.53;;;12.13;;
2055;SDS011;1033;52.560;13.374;2022-08-18T01:39:52;13.43;;;12.07;;
2055;SDS011;1033;52.560;13.374;2022-08-18T01:42:42;13.83;;;12.43;;
2055;SDS011;1033;52.560;13.374;2022-08-18T01:45:11;13.30;;;11.97;;
2055;SDS011;1033;52.560;13.374;2022-08-18T01:47:43;13.50;;;12.07;;
2055;SDS011;1033;52.560;13.374;2022-08-18T01:50:14;14.53;;;13.13;;
2055;SDS011;1033;52.560;13.374;2022-08-18T01:52:45;14.60;;;13.20;;
2055;SDS011;1033;52.560;13.374;2022-08-18T01:55:17;13.90;;;12.40;;
2055;SDS011;1033;52.560;13.374;2022-08-18T01:57:46;14.20;;;12.80;;
2055;SDS011;1033;52.560;13.374;2022-08-18T02:00:16;13.00;;;11.70;;
2055;SDS011;1033;52.560;13.374;2022-08-18T02:02:46;12.63;;;11.43;;
2055;SDS011;1033;52.560;13.374;2022-08-18T02:05:29;11.93;;;10.73;;
2055;SDS011;1033;52.560;13.374;2022-08-18T02:08:03;13.47;;;11.50;;
2055;SDS011;1033;52.560;13.374;2022-08-18T02:10:35;13.30;;;11.87;;
2055;SDS011;1033;52.560;13.374;2022-08-18T02:13:05;11.37;;;10.20;;
2055;SDS011;1033;52.560;13.374;2022-08-18T02:15:35;12.60;;;11.43;;
2055;SDS011;1033;52.560;13.374;2022-08-18T02:18:11;13.93;;;12.60;;
2055;SDS011;1033;52.560;13.374;2022-08-18T02:21:04;13.30;;;12.00;;
2055;SDS011;1033;52.560;13.374;2022-08-18T02:23:37;14.40;;;13.07;;
2055;SDS011;1033;52.560;13.374;2022-08-18T02:26:20;14.03;;;12.47;;
2055;SDS011;1033;52.560;13.374;2022-08-18T02:28:50;12.77;;;11.27;;
2055;SDS011;1033;52.560;13.374;2022-08-18T02:31:20;14.43;;;12.90;;
2055;SDS011;1033;52.560;13.374;2022-08-18T02:33:52;14.93;;;13.33;;
2055;SDS011;1033;52.560;13.374;2022-08-18T02:36:22;13.63;;;12.23;;
2055;SDS011;1033;52.560;13.374;2022-08-18T02:38:52;17.33;;;12.70;;
2055;SDS011;1033;52.560;13.374;2022-08-18T02:41:27;14.07;;;12.67;;
2055;SDS011;1033;52.560;13.374;2022-08-18T02:43:57;13.40;;;12.10;;
2055;SDS011;1033;52.560;13.374;2022-08-18T02:46:26;15.23;;;13.70;;
2055;SDS011;1033;52.560;13.374;2022-08-18T02:48:57;16.07;;;13.70;;
2055;SDS011;1033;52.560;13.374;2022-08-18T02:51:27;15.10;;;13.50;;
2055;SDS011;1033;52.560;13.374;2022-08-18T02:53:56;14.33;;;13.03;;
2055;SDS011;1033;52.560;13.374;2022-08-18T02:56:28;16.17;;;13.90;;
2055;SDS011;1033;52.560;13.374;2022-08-18T02:59:08;15.23;;;13.60;;
2055;SDS011;1033;52.560;13.374;2022-08-18T03:01:43;14.43;;;12.97;;
2055;SDS011;1033;52.560;13.374;2022-08-18T03:04:15;13.13;;;11.83;;
2055;SDS011;1033;52.560;13.374;2022-08-18T03:06:55;16.27;;;14.20;;
2055;SDS011;1033;52.560;13.374;2022-08-18T03:09:27;13.83;;;12.33;;
2055;SDS011;1033;52.560;13.374;2022-08-18T03:12:00;15.63;;;13.40;;
2055;SDS011;1033;52.560;13.374;2022-08-18T03:14:30;15.63;;;14.13;;
2055;SDS011;1033;52.560;13.374;2022-08-18T03:17:02;15.47;;;13.40;;
2055;SDS011;1033;52.560;13.374;2022-08-18T03:19:35;16.10;;;12.90;;
2055;SDS011;1033;52.560;13.374;2022-08-18T03:22:06;14.20;;;12.50;;
2055;SDS011;1033;52.560;13.374;2022-08-18T03:24:54;18.80;;;12.70;;
2055;SDS011;1033;52.560;13.374;2022-08-18T03:27:25;14.43;;;12.97;;
2055;SDS011;1033;52.560;13.374;2022-08-18T03:29:55;13.60;;;12.20;;
2055;SDS011;1033;52.560;13.374;2022-08-18T03:32:24;12.60;;;11.40;;
2055;SDS011;1033;52.560;13.374;2022-08-18T03:34:53;18.40;;;14.17;;
2055;SDS011;1033;52.560;13.374;2022-08-18T03:37:22;14.83;;;13.33;;
2055;SDS011;1033;52.560;13.374;2022-08-18T03:39:51;13.50;;;11.60;;
2055;SDS011;1033;52.560;13.374;2022-08-18T03:42:21;14.80;;;13.13;;
2055;SDS011;1033;52.560;13.374;2022-08-18T03:44:51;16.53;;;14.80;;
2055;SDS011;1033;52.560;13.374;2022-08-18T03:47:20;13.90;;;12.20;;
2055;SDS011;1033;52.560;13.374;2022-08-18T03:49:49;14.20;;;12.73;;
2055;SDS011;1033;52.560;13.374;2022-08-18T03:52:19;17.17;;;11.67;;
2055;SDS011;1033;52.560;13.374;2022-08-18T03:54:49;14.60;;;13.27;;
2055;SDS011;1033;52.560;13.374;2022-08-18T03:57:18;15.20;;;12.90;;
2055;SDS011;1033;52.560;13.374;2022-08-18T03:59:47;15.33;;;13.80;;
2055;SDS011;1033;52.560;13.374;2022-08-18T04:02:18;15.30;;;13.87;;
2055;SDS011;1033;52.560;13.374;2022-08-18T04:04:47;13.73;;;12.40;;
2055;SDS011;1033;52.560;13.374;2022-08-18T04:07:16;14.80;;;13.30;;
2055;SDS011;1033;52.560;13.374;2022-08-18T04:09:45;16.33;;;13.77;;
2055;SDS011;1033;52.560;13.374;2022-08-18T04:12:15;15.43;;;13.80;;
2055;SDS011;1033;52.560;13.374;2022-08-18T04:14:44;13.70;;;12.20;;
2055;SDS011;1033;52.560;13.374;2022-08-18T04:17:18;15.30;;;13.80;;
2055;SDS011;1033;52.560;13.374;2022-08-18T04:19:51;14.77;;;12.90;;
2055;SDS011;1033;52.560;13.374;2022-08-18T04:22:23;14.60;;;13.20;;
2055;SDS011;1033;52.560;13.374;2022-08-18T04:24:53;14.40;;;12.90;;
2055;SDS011;1033;52.560;13.374;2022-08-18T04:27:23;14.30;;;12.90;;
2055;SDS011;1033;52.560;13.374;2022-08-18T04:29:52;14.87;;;13.37;;
2055;SDS011;1033;52.560;13.374;2022-08-18T04:32:24;13.13;;;11.80;;
2055;SDS011;1033;52.560;13.374;2022-08-18T04:34:55;15.07;;;13.17;;
2055;SDS011;1033;52.560;13.374;2022-08-18T04:37:28;16.37;;;14.63;;
2055;SDS011;1033;52.560;13.374;2022-08-18T04:40:05;14.50;;;13.10;;
2055;SDS011;1033;52.560;13.374;2022-08-18T04:42:38;15.07;;;12.90;;
2055;SDS011;1033;52.560;13.374;2022-08-18T04:45:09;19.83;;;14.40;;
2055;SDS011;1033;52.560;13.374;2022-08-18T04:47:41;17.37;;;13.80;;
2055;SDS011;1033;52.560;13.374;2022-08-18T04:50:10;17.87;;;13.70;;
2055;SDS011;1033;52.560;13.374;2022-08-18T04:52:41;16.43;;;14.73;;
2055;SDS011;1033;52.560;13.374;2022-08-18T04:55:27;17.20;;;14.27;;
2055;SDS011;1033;52.560;13.374;2022-08-18T04:57:57;24.23;;;12.90;;
2055;SDS011;1033;52.560;13.374;2022-08-18T05:00:26;15.47;;;13.87;;
2055;SDS011;1033;52.560;13.374;2022-08-18T05:02:57;18.73;;;14.07;;
2055;SDS011;1033;52.560;13.374;2022-08-18T05:05:26;17.90;;;13.60;;
2055;SDS011;1033;52.560;13.374;2022-08-18T05:07:55;15.20;;;13.70;;
2055;SDS011;1033;52.560;13.374;2022-08-18T05:10:24;13.40;;;12.00;;
2055;SDS011;1033;52.560;13.374;2022-08-18T05:12:53;16.37;;;14.87;;
2055;SDS011;1033;52.560;13.374;2022-08-18T05:15:23;13.27;;;11.97;;
2055;SDS011;1033;52.560;13.374;2022-08-18T05:17:52;16.00;;;14.27;;
2055;SDS011;1033;52.560;13.374;2022-08-18T05:20:25;14.90;;;13.30;;
2055;SDS011;1033;52.560;13.374;2022-08-18T05:22:55;17.33;;;14.60;;
2055;SDS011;1033;52.560;13.374;2022-08-18T05:25:24;16.37;;;14.70;;
2055;SDS011;1033;52.560;13.374;2022-08-18T05:27:55;15.00;;;13.40;;
2055;SDS011;1033;52.560;13.374;2022-08-18T05:30:24;15.83;;;13.37;;
2055;SDS011;1033;52.560;13.374;2022-08-18T05:32:53;16.30;;;14.60;;
2055;SDS011;1033;52.560;13.374;2022-08-18T05:35:24;14.83;;;13.33;;
2055;SDS011;1033;52.560;13.374;2022-08-18T05:38:14;14.77;;;13.17;;
2055;SDS011;1033;52.560;13.374;2022-08-18T05:41:14;15.27;;;13.53;;
2055;SDS011;1033;52.560;13.374;2022-08-18T05:43:51;15.47;;;13.97;;
2055;SDS011;1033;52.560;13.374;2022-08-18T05:46:23;14.97;;;13.47;;
2055;SDS011;1033;52.560;13.374;2022-08-18T05:49:03;19.07;;;15.17;;
2055;SDS011;1033;52.560;13.374;2022-08-18T05:51:37;16.63;;;14.73;;
2055;SDS011;1033;52.560;13.374;2022-08-18T05:54:11;16.60;;;15.03;;
2055;SDS011;1033;52.560;13.374;2022-08-18T05:57:00;20.17;;;15.20;;
2055;SDS011;1033;52.560;13.374;2022-08-18T05:59:36;15.70;;;14.10;;
2055;SDS011;1033;52.560;13.374;2022-08-18T06:02:10;15.70;;;13.90;;
2055;SDS011;1033;52.560;13.374;2022-08-18T06:04:51;15.30;;;13.80;;
2055;SDS011;1033;52.560;13.374;2022-08-18T06:07:32;21.30;;;14.50;;
2055;SDS011;1033;52.560;13.374;2022-08-18T06:10:08;18.30;;;16.57;;
2055;SDS011;1033;52.560;13.374;2022-08-18T06:12:40;15.43;;;14.00;;
2055;SDS011;1033;52.560;13.374;2022-08-18T06:15:29;15.87;;;14.20;;
2055;SDS011;1033;52.560;13.374;2022-08-18T06:21:23;18.67;;;15.70;;
2055;SDS011;1033;52.560;13.374;2022-08-18T06:24:13;16.60;;;14.53;;
2055;SDS011;1033;52.560;13.374;2022-08-18T06:26:57;15.13;;;13.63;;
2055;SDS011;1033;52.560;13.374;2022-08-18T06:29:49;17.87;;;14.33;;
2055;SDS011;1033;52.560;13.374;2022-08-18T06:32:35;18.70;;;16.93;;
2055;SDS011;1033;52.560;13.374;2022-08-18T06:35:33;16.00;;;14.50;;
2055;SDS011;1033;52.560;13.374;2022-08-18T06:38:12;20.10;;;15.53;;
2055;SDS011;1033;52.560;13.374;2022-08-18T06:41:10;17.30;;;15.70;;
2055;SDS011;1033;52.560;13.374;2022-08-18T06:44:04;16.23;;;14.50;;
2055;SDS011;1033;52.560;13.374;2022-08-18T06:46:39;16.90;;;15.30;;
2055;SDS011;1033;52.560;13.374;2022-08-18T06:49:17;16.20;;;14.60;;
2055;SDS011;1033;52.560;13.374;2022-08-18T06:54:59;17.70;;;15.93;;
2055;SDS011;1033;52.560;13.374;2022-08-18T06:57:34;17.47;;;15.67;;
2055;SDS011;1033;52.560;13.374;2022-08-18T07:00:07;17.47;;;15.67;;
2055;SDS011;1033;52.560;13.374;2022-08-18T07:02:50;18.20;;;15.30;;
2055;SDS011;1033;52.560;13.374;2022-08-18T07:05:26;16.80;;;15.10;;
2055;SDS011;1033;52.560;13.374;2022-08-18T07:08:13;15.73;;;14.23;;
2055;SDS011;1033;52.560;13.374;2022-08-18T07:10:51;17.73;;;15.93;;
2055;SDS011;1033;52.560;13.374;2022-08-18T07:13:23;16.10;;;14.47;;
2055;SDS011;1033;52.560;13.374;2022-08-18T07:19:06;16.07;;;14.40;;
2055;SDS011;1033;52.560;13.374;2022-08-18T07:21:36;16.33;;;14.47;;
2055;SDS011;1033;52.560;13.374;2022-08-18T07:24:08;17.10;;;15.30;;
2055;SDS011;1033;52.560;13.374;2022-08-18T07:26:57;17.53;;;15.83;;
2055;SDS011;1033;52.560;13.374;2022-08-18T07:29:31;23.13;;;16.70;;
2055;SDS011;1033;52.560;13.374;2022-08-18T07:32:05;16.83;;;15.30;;
2055;SDS011;1033;52.560;13.374;2022-08-18T07:34:48;18.20;;;15.73;;
2055;SDS011;1033;52.560;13.374;2022-08-18T07:37:25;16.70;;;14.53;;
2055;SDS011;1033;52.560;13.374;2022-08-18T07:40:00;16.73;;;15.07;;
2055;SDS011;1033;52.560;13.374;2022-08-18T07:42:43;20.33;;;15.90;;
2055;SDS011;1033;52.560;13.374;2022-08-18T07:45:33;17.07;;;15.50;;
2055;SDS011;1033;52.560;13.374;2022-08-18T07:48:09;17.20;;;15.57;;
2055;SDS011;1033;52.560;13.374;2022-08-18T07:51:05;16.57;;;14.93;;
2055;SDS011;1033;52.560;13.374;2022-08-18T07:53:52;18.27;;;16.37;;
2055;SDS011;1033;52.560;13.374;2022-08-18T07:57:00;16.57;;;14.90;;
2055;SDS011;1033;52.560;13.374;2022-08-18T07:59:37;17.47;;;15.67;;
2055;SDS011;1033;52.560;13.374;2022-08-18T08:02:21;17.57;;;15.77;;
2055;SDS011;1033;52.560;13.374;2022-08-18T08:05:06;20.63;;;14.80;;
2055;SDS011;1033;52.560;13.374;2022-08-18T08:07:44;18.40;;;15.17;;
2055;SDS011;1033;52.560;13.374;2022-08-18T08:10:28;16.67;;;15.07;;
2055;SDS011;1033;52.560;13.374;2022-08-18T08:13:11;17.90;;;14.47;;
2055;SDS011;1033;52.560;13.374;2022-08-18T08:16:12;17.13;;;15.17;;
2055;SDS011;1033;52.560;13.374;2022-08-18T08:18:58;21.17;;;14.47;;
2055;SDS011;1033;52.560;13.374;2022-08-18T08:22:11;17.90;;;16.00;;
2055;SDS011;1033;52.560;13.374;2022-08-18T08:24:51;17.10;;;15.50;;
2055;SDS011;1033;52.560;13.374;2022-08-18T08:27:55;17.40;;;15.20;;
2055;SDS011;1033;52.560;13.374;2022-08-18T08:30:40;17.20;;;15.37;;
2055;SDS011;1033;52.560;13.374;2022-08-18T08:33:21;17.57;;;16.07;;
2055;SDS011;1033;52.560;13.374;2022-08-18T08:36:01;19.00;;;17.20;;
2055;SDS011;1033;52.560;13.374;2022-08-18T08:38:40;16.97;;;15.27;;
2055;SDS011;1033;52.560;13.374;2022-08-18T08:41:16;16.60;;;14.90;;
2055;SDS011;1033;52.560;13.374;2022-08-18T08:43:55;25.33;;;16.00;;
2055;SDS011;1033;52.560;13.374;2022-08-18T08:46:35;16.97;;;15.37;;
2055;SDS011;1033;52.560;13.374;2022-08-18T08:49:18;18.03;;;15.70;;
2055;SDS011;1033;52.560;13.374;2022-08-18T08:52:06;18.40;;;16.47;;
2055;SDS011;1033;52.560;13.374;2022-08-18T08:54:45;17.33;;;15.53;;
2055;SDS011;1033;52.560;13.374;2022-08-18T08:57:21;19.27;;;16.50;;
2055;SDS011;1033;52.560;13.374;2022-08-18T09:00:02;18.00;;;16.40;;
2055;SDS011;1033;52.560;13.374;2022-08-18T09:02:51;16.67;;;15.20;;
2055;SDS011;1033;52.560;13.374;2022-08-18T09:05:41;15.70;;;14.10;;
2055;SDS011;1033;52.560;13.374;2022-08-18T09:11:45;20.33;;;16.37;;
2055;SDS011;1033;52.560;13.374;2022-08-18T09:14:57;15.83;;;14.23;;
2055;SDS011;1033;52.560;13.374;2022-08-18T09:18:06;21.83;;;16.70;;
2055;SDS011;1033;52.560;13.374;2022-08-18T09:20:57;16.77;;;14.50;;
2055;SDS011;1033;52.560;13.374;2022-08-18T09:23:45;17.80;;;15.90;;
2055;SDS011;1033;52.560;13.374;2022-08-18T09:26:25;17.23;;;15.27;;
2055;SDS011;1033;52.560;13.374;2022-08-18T09:29:13;14.50;;;13.30;;
2055;SDS011;1033;52.560;13.374;2022-08-18T09:35:08;15.17;;;13.60;;
2055;SDS011;1033;52.560;13.374;2022-08-18T09:37:57;15.23;;;13.77;;
2055;SDS011;1033;52.560;13.374;2022-08-18T09:40:55;14.73;;;13.27;;
2055;SDS011;1033;52.560;13.374;2022-08-18T09:43:55;14.37;;;13.07;;
2055;SDS011;1033;52.560;13.374;2022-08-18T09:46:56;14.83;;;13.47;;
2055;SDS011;1033;52.560;13.374;2022-08-18T09:55:52;14.17;;;12.80;;
2055;SDS011;1033;52.560;13.374;2022-08-18T10:01:39;15.33;;;13.83;;
2055;SDS011;1033;52.560;13.374;2022-08-18T10:04:24;16.10;;;14.67;;
2055;SDS011;1033;52.560;13.374;2022-08-18T10:07:16;16.50;;;14.93;;
2055;SDS011;1033;52.560;13.374;2022-08-18T10:10:06;15.70;;;12.90;;
2055;SDS011;1033;52.560;13.374;2022-08-18T10:13:11;16.30;;;14.70;;
2055;SDS011;1033;52.560;13.374;2022-08-18T10:16:01;15.30;;;12.73;;
2055;SDS011;1033;52.560;13.374;2022-08-18T10:18:54;14.50;;;12.60;;
2055;SDS011;1033;52.560;13.374;2022-08-18T10:24:42;12.30;;;11.20;;
2055;SDS011;1033;52.560;13.374;2022-08-18T10:27:33;14.07;;;12.50;;
2055;SDS011;1033;52.560;13.374;2022-08-18T10:33:54;12.90;;;11.50;;
2055;SDS011;1033;52.560;13.374;2022-08-18T10:36:51;12.50;;;11.20;;
2055;SDS011;1033;52.560;13.374;2022-08-18T10:39:26;15.03;;;10.40;;
2055;SDS011;1033;52.560;13.374;2022-08-18T10:42:17;11.83;;;10.73;;
2055;SDS011;1033;52.560;13.374;2022-08-18T10:45:14;11.80;;;10.37;;
2055;SDS011;1033;52.560;13.374;2022-08-18T10:48:01;12.60;;;11.50;;
2055;SDS011;1033;52.560;13.374;2022-08-18T10:50:45;11.43;;;10.43;;
2055;SDS011;1033;52.560;13.374;2022-08-18T10:53:22;11.17;;;10.07;;
2055;SDS011;1033;52.560;13.374;2022-08-18T10:56:27;12.63;;;11.43;;
2055;SDS011;1033;52.560;13.374;2022-08-18T10:59:11;11.80;;;10.77;;
2055;SDS011;1033;52.560;13.374;2022-08-18T11:01:57;11.43;;;10.30;;
2055;SDS011;1033;52.560;13.374;2022-08-18T11:04:43;12.87;;;11.53;;
2055;SDS011;1033;52.560;13.374;2022-08-18T11:10:14;11.87;;;10.87;;
2055;SDS011;1033;52.560;13.374;2022-08-18T11:13:06;10.97;;;9.90;;
2055;SDS011;1033;52.560;13.374;2022-08-18T11:15:55;11.60;;;10.43;;
2055;SDS011;1033;52.560;13.374;2022-08-18T11:18:40;12.30;;;10.60;;
2055;SDS011;1033;52.560;13.374;2022-08-18T11:21:22;11.83;;;10.00;;
2055;SDS011;1033;52.560;13.374;2022-08-18T11:24:09;14.37;;;9.90;;
2055;SDS011;1033;52.560;13.374;2022-08-18T11:26:45;11.27;;;9.10;;
2055;SDS011;1033;52.560;13.374;2022-08-18T11:29:25;10.80;;;9.73;;
2055;SDS011;1033;52.560;13.374;2022-08-18T11:32:06;11.07;;;9.80;;
2055;SDS011;1033;52.560;13.374;2022-08-18T11:34:44;10.93;;;9.93;;
2055;SDS011;1033;52.560;13.374;2022-08-18T11:37:21;11.83;;;9.13;;
2055;SDS011;1033;52.560;13.374;2022-08-18T11:40:22;11.13;;;10.10;;
2055;SDS011;1033;52.560;13.374;2022-08-18T11:43:29;10.40;;;9.30;;
2055;SDS011;1033;52.560;13.374;2022-08-18T11:46:13;10.00;;;8.50;;
2055;SDS011;1033;52.560;13.374;2022-08-18T11:48:57;9.10;;;8.33;;
2055;SDS011;1033;52.560;13.374;2022-08-18T11:51:52;10.43;;;9.37;;
2055;SDS011;1033;52.560;13.374;2022-08-18T11:54:34;17.80;;;9.30;;
2055;SDS011;1033;52.560;13.374;2022-08-18T11:57:37;7.73;;;7.10;;
2055;SDS011;1033;52.560;13.374;2022-08-18T12:03:36;8.67;;;7.97;;
2055;SDS011;1033;52.560;13.374;2022-08-18T12:06:11;10.30;;;9.37;;
2055;SDS011;1033;52.560;13.374;2022-08-18T12:08:56;10.37;;;9.37;;
2055;SDS011;1033;52.560;13.374;2022-08-18T12:11:30;9.67;;;8.70;;
2055;SDS011;1033;52.560;13.374;2022-08-18T12:14:07;11.40;;;10.33;;
2055;SDS011;1033;52.560;13.374;2022-08-18T12:16:59;9.30;;;8.40;;
2055;SDS011;1033;52.560;13.374;2022-08-18T12:19:33;8.83;;;8.00;;
2055;SDS011;1033;52.560;13.374;2022-08-18T12:22:12;9.43;;;8.60;;
2055;SDS011;1033;52.560;13.374;2022-08-18T12:24:45;9.57;;;8.50;;
2055;SDS011;1033;52.560;13.374;2022-08-18T12:27:15;8.63;;;7.83;;
2055;SDS011;1033;52.560;13.374;2022-08-18T12:29:48;10.53;;;9.53;;
2055;SDS011;1033;52.560;13.374;2022-08-18T12:32:18;11.17;;;10.07;;
2055;SDS011;1033;52.560;13.374;2022-08-18T12:35:11;9.77;;;8.87;;
2055;SDS011;1033;52.560;13.374;2022-08-18T12:37:41;9.40;;;8.70;;
2055;SDS011;1033;52.560;13.374;2022-08-18T12:40:32;10.60;;;9.70;;
2055;SDS011;1033;52.560;13.374;2022-08-18T12:43:01;12.23;;;11.23;;
2055;SDS011;1033;52.560;13.374;2022-08-18T12:45:31;12.23;;;11.23;;
2055;SDS011;1033;52.560;13.374;2022-08-18T12:48:04;10.90;;;9.90;;
2055;SDS011;1033;52.560;13.374;2022-08-18T12:50:35;11.20;;;10.13;;
2055;SDS011;1033;52.560;13.374;2022-08-18T12:53:20;11.77;;;10.60;;
2055;SDS011;1033;52.560;13.374;2022-08-18T12:56:04;11.33;;;10.33;;
2055;SDS011;1033;52.560;13.374;2022-08-18T12:58:37;11.67;;;10.20;;
2055;SDS011;1033;52.560;13.374;2022-08-18T13:01:06;11.73;;;10.57;;
2055;SDS011;1033;52.560;13.374;2022-08-18T13:03:35;10.47;;;9.67;;
2055;SDS011;1033;52.560;13.374;2022-08-18T13:06:09;12.17;;;11.07;;
2055;SDS011;1033;52.560;13.374;2022-08-18T13:08:42;11.23;;;9.47;;
2055;SDS011;1033;52.560;13.374;2022-08-18T13:11:15;11.67;;;10.57;;
2055;SDS011;1033;52.560;13.374;2022-08-18T13:13:49;11.60;;;10.50;;
2055;SDS011;1033;52.560;13.374;2022-08-18T13:16:22;10.83;;;9.90;;
2055;SDS011;1033;52.560;13.374;2022-08-18T13:18:56;10.70;;;9.70;;
2055;SDS011;1033;52.560;13.374;2022-08-18T13:21:27;11.77;;;10.60;;
2055;SDS011;1033;52.560;13.374;2022-08-18T13:24:06;11.33;;;10.33;;
2055;SDS011;1033;52.560;13.374;2022-08-18T13:26:40;10.50;;;9.60;;
2055;SDS011;1033;52.560;13.374;2022-08-18T13:29:12;10.07;;;9.13;;
2055;SDS011;1033;52.560;13.374;2022-08-18T13:31:43;11.20;;;10.20;;
2055;SDS011;1033;52.560;13.374;2022-08-18T13:34:21;9.70;;;8.70;;
2055;SDS011;1033;52.560;13.374;2022-08-18T13:36:53;11.00;;;8.87;;
2055;SDS011;1033;52.560;13.374;2022-08-18T13:39:23;10.90;;;9.70;;
2055;SDS011;1033;52.560;13.374;2022-08-18T13:42:00;9.97;;;9.17;;
2055;SDS011;1033;52.560;13.374;2022-08-18T13:44:50;9.93;;;9.07;;
2055;SDS011;1033;52.560;13.374;2022-08-18T13:47:22;8.67;;;7.90;;
2055;SDS011;1033;52.560;13.374;2022-08-18T13:49:55;9.87;;;9.07;;
2055;SDS011;1033;52.560;13.374;2022-08-18T13:52:27;9.87;;;9.07;;
2055;SDS011;1033;52.560;13.374;2022-08-18T13:55:02;10.17;;;8.87;;
2055;SDS011;1033;52.560;13.374;2022-08-18T13:57:34;9.50;;;8.60;;
2055;SDS011;1033;52.560;13.374;2022-08-18T14:00:04;9.67;;;8.87;;
2055;SDS011;1033;52.560;13.374;2022-08-18T14:02:46;10.50;;;9.50;;
2055;SDS011;1033;52.560;13.374;2022-08-18T14:05:19;10.00;;;9.00;;
2055;SDS011;1033;52.560;13.374;2022-08-18T14:08:10;11.03;;;9.93;;
2055;SDS011;1033;52.560;13.374;2022-08-18T14:10:45;10.30;;;8.90;;
2055;SDS011;1033;52.560;13.374;2022-08-18T14:13:17;8.40;;;7.53;;
2055;SDS011;1033;52.560;13.374;2022-08-18T14:15:51;8.77;;;7.87;;
2055;SDS011;1033;52.560;13.374;2022-08-18T14:18:24;8.90;;;8.10;;
2055;SDS011;1033;52.560;13.374;2022-08-18T14:20:56;9.60;;;8.70;;
2055;SDS011;1033;52.560;13.374;2022-08-18T14:23:50;8.37;;;7.57;;
2055;SDS011;1033;52.560;13.374;2022-08-18T14:26:40;11.33;;;8.57;;
2055;SDS011;1033;52.560;13.374;2022-08-18T14:29:16;10.30;;;9.40;;
2055;SDS011;1033;52.560;13.374;2022-08-18T14:32:06;8.73;;;7.90;;
2055;SDS011;1033;52.560;13.374;2022-08-18T14:34:43;9.47;;;8.67;;
2055;SDS011;1033;52.560;13.374;2022-08-18T14:37:16;11.80;;;10.57;;
2055;SDS011;1033;52.560;13.374;2022-08-18T14:39:48;10.07;;;9.17;;
2055;SDS011;1033;52.560;13.374;2022-08-18T14:42:19;9.93;;;9.17;;
2055;SDS011;1033;52.560;13.374;2022-08-18T14:45:09;9.77;;;8.97;;
2055;SDS011;1033;52.560;13.374;2022-08-18T14:47:57;11.43;;;10.33;;
2055;SDS011;1033;52.560;13.374;2022-08-18T14:50:26;10.30;;;9.40;;
2055;SDS011;1033;52.560;13.374;2022-08-18T14:52:56;9.37;;;8.37;;
2055;SDS011;1033;52.560;13.374;2022-08-18T14:55:26;9.83;;;9.00;;
2055;SDS011;1033;52.560;13.374;2022-08-18T14:57:56;8.57;;;7.87;;
2055;SDS011;1033;52.560;13.374;2022-08-18T15:00:26;9.00;;;8.20;;
2055;SDS011;1033;52.560;13.374;2022-08-18T15:02:55;9.70;;;7.63;;
2055;SDS011;1033;52.560;13.374;2022-08-18T15:05:25;9.03;;;8.13;;
2055;SDS011;1033;52.560;13.374;2022-08-18T15:08:02;8.80;;;8.00;;
2055;SDS011;1033;52.560;13.374;2022-08-18T15:10:33;11.93;;;8.00;;
2055;SDS011;1033;52.560;13.374;2022-08-18T15:13:02;9.07;;;8.27;;
2055;SDS011;1033;52.560;13.374;2022-08-18T15:15:32;9.50;;;8.60;;
2055;SDS011;1033;52.560;13.374;2022-08-18T15:18:16;8.77;;;8.07;;
2055;SDS011;1033;52.560;13.374;2022-08-18T15:20:48;11.57;;;10.30;;
2055;SDS011;1033;52.560;13.374;2022-08-18T15:23:55;10.90;;;7.97;;
2055;SDS011;1033;52.560;13.374;2022-08-18T15:26:47;11.27;;;8.80;;
2055;SDS011;1033;52.560;13.374;2022-08-18T15:29:24;9.17;;;8.27;;
2055;SDS011;1033;52.560;13.374;2022-08-18T15:31:55;9.30;;;8.40;;
2055;SDS011;1033;52.560;13.374;2022-08-18T15:34:36;8.87;;;7.97;;
2055;SDS011;1033;52.560;13.374;2022-08-18T15:37:16;10.00;;;9.00;;
2055;SDS011;1033;52.560;13.374;2022-08-18T15:39:57;8.90;;;8.10;;
2055;SDS011;1033;52.560;13.374;2022-08-18T15:42:36;8.10;;;7.40;;
2055;SDS011;1033;52.560;13.374;2022-08-18T15:45:12;9.10;;;8.30;;
2055;SDS011;1033;52.560;13.374;2022-08-18T15:47:52;8.30;;;7.47;;
2055;SDS011;1033;52.560;13.374;2022-08-18T15:50:22;10.83;;;8.70;;
2055;SDS011;1033;52.560;13.374;2022-08-18T15:52:52;8.83;;;8.13;;
2055;SDS011;1033;52.560;13.374;2022-08-18T15:55:25;7.93;;;7.30;;
2055;SDS011;1033;52.560;13.374;2022-08-18T15:58:04;15.30;;;10.07;;
2055;SDS011;1033;52.560;13.374;2022-08-18T16:00:38;9.13;;;7.20;;
2055;SDS011;1033;52.560;13.374;2022-08-18T16:03:12;8.67;;;7.83;;
2055;SDS011;1033;52.560;13.374;2022-08-18T16:05:45;9.20;;;8.40;;
2055;SDS011;1033;52.560;13.374;2022-08-18T16:08:19;10.93;;;9.90;;
2055;SDS011;1033;52.560;13.374;2022-08-18T16:10:50;7.97;;;7.10;;
2055;SDS011;1033;52.560;13.374;2022-08-18T16:13:22;8.50;;;7.80;;
2055;SDS011;1033;52.560;13.374;2022-08-18T16:15:54;8.30;;;7.60;;
2055;SDS011;1033;52.560;13.374;2022-08-18T16:18:23;8.10;;;7.40;;
2055;SDS011;1033;52.560;13.374;2022-08-18T16:20:55;9.27;;;8.13;;
2055;SDS011;1033;52.560;13.374;2022-08-18T16:23:37;9.53;;;8.63;;